createdAt,value
2023-02-27T00:01:52.749Z,14.30
2023-02-27T00:04:58.279Z,21.53
2023-02-27T00:08:02.171Z,14.53
2023-02-27T00:11:07.612Z,13.93
2023-02-27T00:14:11.545Z,15.53
2023-02-27T00:17:15.367Z,12.43
2023-02-27T00:20:20.835Z,17.43
2023-02-27T00:23:24.978Z,15.20
2023-02-27T00:26:30.108Z,16.30
2023-02-27T00:29:33.928Z,15.93
2023-02-27T00:32:37.958Z,16.50
2023-02-27T00:35:41.627Z,16.03
2023-02-27T00:38:46.273Z,19.13
2023-02-27T00:41:51.368Z,16.00
2023-02-27T00:44:54.834Z,21.40
2023-02-27T00:47:58.434Z,20.50
2023-02-27T00:51:02.073Z,13.03
2023-02-27T00:54:05.794Z,14.23
2023-02-27T00:57:10.888Z,22.93
2023-02-27T01:00:15.274Z,24.93
2023-02-27T01:03:19.152Z,19.43
2023-02-27T01:06:23.504Z,14.50
2023-02-27T01:09:27.169Z,16.23
2023-02-27T01:12:32.345Z,17.30
2023-02-27T01:15:36.812Z,17.87
2023-02-27T01:18:40.946Z,24.23
2023-02-27T01:21:44.682Z,18.17
2023-02-27T01:24:51.095Z,22.67
2023-02-27T01:27:56.211Z,17.73
2023-02-27T01:30:59.888Z,16.43
2023-02-27T01:34:03.705Z,22.47
2023-02-27T01:37:08.778Z,17.60
2023-02-27T01:40:13.727Z,18.87
2023-02-27T01:43:21.715Z,17.97
2023-02-27T01:46:25.938Z,28.43
2023-02-27T01:49:34.078Z,26.47
2023-02-27T01:52:42.630Z,21.03
2023-02-27T01:55:48.151Z,20.50
2023-02-27T01:58:56.072Z,23.33
2023-02-27T02:02:03.299Z,22.30
2023-02-27T02:05:09.097Z,18.97
2023-02-27T02:08:15.476Z,18.13
2023-02-27T02:11:21.596Z,25.23
2023-02-27T02:14:27.918Z,24.10
2023-02-27T02:17:40.565Z,19.13
2023-02-27T02:21:40.584Z,19.70
2023-02-27T02:25:25.490Z,18.67
2023-02-27T02:28:57.090Z,23.23
2023-02-27T02:32:57.231Z,17.93
2023-02-27T02:36:52.689Z,27.17
2023-02-27T02:40:20.257Z,20.87
2023-02-27T02:43:29.771Z,19.63
2023-02-27T02:46:39.920Z,19.80
2023-02-27T02:49:51.101Z,19.87
2023-02-27T02:53:06.208Z,21.33
2023-02-27T02:56:19.346Z,19.20
2023-02-27T02:59:30.548Z,21.67
2023-02-27T03:02:39.075Z,23.77
2023-02-27T03:05:48.474Z,20.63
2023-02-27T03:08:57.250Z,23.40
2023-02-27T03:12:04.408Z,16.30
2023-02-27T03:15:14.072Z,29.97
2023-02-27T03:18:24.884Z,18.57
2023-02-27T03:21:33.753Z,18.40
2023-02-27T03:24:41.239Z,24.43
2023-02-27T03:27:50.236Z,18.97
2023-02-27T03:31:02.078Z,17.77
2023-02-27T03:34:14.651Z,21.20
2023-02-27T03:37:28.971Z,21.50
2023-02-27T03:40:37.157Z,16.23
2023-02-27T03:43:52.843Z,16.63
2023-02-27T03:47:01.088Z,17.13
2023-02-27T03:50:05.714Z,16.50
2023-02-27T03:53:18.620Z,21.70
2023-02-27T03:56:27.126Z,18.57
2023-02-27T03:59:33.832Z,21.33
2023-02-27T04:02:38.328Z,20.23
2023-02-27T04:05:42.495Z,20.13
2023-02-27T04:08:58.367Z,23.53
2023-02-27T04:12:19.881Z,21.80
2023-02-27T04:15:34.336Z,18.27
2023-02-27T04:18:55.705Z,15.87
2023-02-27T04:22:12.621Z,22.60
2023-02-27T04:25:33.552Z,16.53
2023-02-27T04:28:46.659Z,18.43
2023-02-27T04:31:58.825Z,24.97
2023-02-27T04:35:08.490Z,21.53
2023-02-27T04:38:19.092Z,16.73
2023-02-27T04:41:26.714Z,12.90
2023-02-27T04:44:34.724Z,37.67
2023-02-27T04:47:46.309Z,18.87
2023-02-27T04:50:55.574Z,11.50
2023-02-27T04:54:03.499Z,9.03
2023-02-27T04:57:12.323Z,6.47
2023-02-27T05:00:18.378Z,6.97
2023-02-27T05:03:28.226Z,5.53
2023-02-27T05:06:35.579Z,2.50
2023-02-27T05:09:45.128Z,3.93
2023-02-27T05:12:53.786Z,5.63
2023-02-27T05:16:05.459Z,5.37
2023-02-27T05:19:11.636Z,3.77
2023-02-27T05:22:28.313Z,3.00
2023-02-27T05:25:38.947Z,3.20
2023-02-27T05:28:53.185Z,3.33
2023-02-27T05:32:06.018Z,7.67
2023-02-27T05:35:18.593Z,3.10
2023-02-27T05:38:27.968Z,7.20
2023-02-27T05:41:34.931Z,6.00
2023-02-27T05:44:43.777Z,11.30
2023-02-27T05:47:53.855Z,6.27
2023-02-27T05:51:00.564Z,6.30
2023-02-27T05:54:11.817Z,5.50
2023-02-27T05:57:22.752Z,9.27
2023-02-27T06:00:35.097Z,9.50
2023-02-27T06:03:41.176Z,8.97
2023-02-27T06:06:46.636Z,10.70
2023-02-27T06:09:51.958Z,8.73
2023-02-27T06:12:55.818Z,9.20
2023-02-27T06:15:59.807Z,9.37
2023-02-27T06:19:05.044Z,15.43
2023-02-27T06:22:11.198Z,11.13
2023-02-27T06:25:15.074Z,13.10
2023-02-27T06:28:19.189Z,11.97
2023-02-27T06:31:23.165Z,9.00
2023-02-27T06:34:27.262Z,12.20
2023-02-27T06:37:32.446Z,5.63
2023-02-27T06:40:36.420Z,7.57
2023-02-27T06:43:40.250Z,6.60
2023-02-27T06:46:44.306Z,7.77
2023-02-27T06:49:48.293Z,9.70
2023-02-27T06:52:53.594Z,20.73
2023-02-27T06:55:57.825Z,11.40
2023-02-27T06:59:01.688Z,10.47
2023-02-27T07:02:05.485Z,12.60
2023-02-27T07:05:11.472Z,8.90
2023-02-27T07:08:18.020Z,9.90
2023-02-27T07:11:21.894Z,6.87
2023-02-27T07:14:25.912Z,9.47
2023-02-27T07:17:29.702Z,8.97
2023-02-27T07:20:33.515Z,7.40
2023-02-27T07:23:39.100Z,8.90
2023-02-27T07:26:43.213Z,10.00
2023-02-27T07:29:46.993Z,8.97
2023-02-27T07:32:50.948Z,9.90
2023-02-27T07:35:54.989Z,10.10
2023-02-27T07:39:00.470Z,5.93
2023-02-27T07:42:04.260Z,8.77
2023-02-27T07:45:11.337Z,9.70
2023-02-27T07:48:15.165Z,7.50
2023-02-27T07:51:19.105Z,8.37
2023-02-27T07:54:24.577Z,12.97
2023-02-27T07:57:28.395Z,13.47
2023-02-27T08:00:32.649Z,15.90
2023-02-27T08:03:36.461Z,9.67
2023-02-27T08:06:40.209Z,11.00
2023-02-27T08:09:45.555Z,14.50
2023-02-27T08:12:49.446Z,16.07
2023-02-27T08:15:54.467Z,13.10
2023-02-27T08:18:58.383Z,14.67
2023-02-27T08:22:02.132Z,8.60
2023-02-27T08:25:11.355Z,14.93
2023-02-27T08:28:15.645Z,9.20
2023-02-27T08:31:19.563Z,12.40
2023-02-27T08:34:23.307Z,9.90
2023-02-27T08:37:27.504Z,16.43
2023-02-27T08:40:32.746Z,14.50
2023-02-27T08:43:36.515Z,15.53
2023-02-27T08:46:40.370Z,13.40
2023-02-27T08:49:44.205Z,16.33
2023-02-27T08:52:47.893Z,11.20
2023-02-27T08:55:53.897Z,13.57
2023-02-27T08:58:58.043Z,13.53
2023-02-27T09:02:01.883Z,14.07
2023-02-27T09:05:06.121Z,15.00
2023-02-27T09:08:09.969Z,13.13
2023-02-27T09:11:15.313Z,13.63
2023-02-27T09:14:19.179Z,15.37
2023-02-27T09:17:23.138Z,16.87
2023-02-27T09:20:26.926Z,14.87
2023-02-27T09:23:30.788Z,13.23
2023-02-27T09:26:45.219Z,13.50
2023-02-27T09:29:55.610Z,7.30
2023-02-27T09:32:59.425Z,19.10
2023-02-27T09:36:03.278Z,13.40
2023-02-27T09:39:09.933Z,10.03
2023-02-27T09:42:20.671Z,10.60
2023-02-27T09:45:26.566Z,10.30
2023-02-27T09:48:33.931Z,16.67
2023-02-27T09:51:37.732Z,15.57
2023-02-27T09:54:44.313Z,15.87
2023-02-27T09:57:56.664Z,18.53
2023-02-27T10:01:06.526Z,18.67
2023-02-27T10:04:29.473Z,11.20
2023-02-27T10:07:40.162Z,14.67
2023-02-27T10:10:51.188Z,8.20
2023-02-27T10:14:04.567Z,11.83
2023-02-27T10:17:17.587Z,9.77
2023-02-27T10:20:27.278Z,11.27
2023-02-27T10:23:37.882Z,13.27
2023-02-27T10:26:44.418Z,10.30
2023-02-27T10:29:50.364Z,13.67
2023-02-27T10:32:59.549Z,11.30
2023-02-27T10:36:04.498Z,10.07
2023-02-27T10:39:12.122Z,14.10
2023-02-27T10:42:18.419Z,10.63
2023-02-27T10:45:23.736Z,15.25
2023-02-27T10:48:27.573Z,11.82
2023-02-27T10:51:35.176Z,11.63
2023-02-27T10:54:39.357Z,17.63
2023-02-27T10:57:44.563Z,16.83
2023-02-27T11:00:56.448Z,15.57
2023-02-27T11:04:00.472Z,15.48
2023-02-27T11:07:07.309Z,14.73
2023-02-27T11:10:20.093Z,24.77
2023-02-27T11:13:26.372Z,16.20
2023-02-27T11:16:47.678Z,21.02
2023-02-27T11:19:51.621Z,14.40
2023-02-27T11:23:04.936Z,19.42
2023-02-27T11:26:17.243Z,16.27
2023-02-27T11:29:22.537Z,21.98
2023-02-27T11:32:31.773Z,20.70
2023-02-27T11:35:38.730Z,21.05
2023-02-27T11:38:42.641Z,23.35
2023-02-27T11:41:46.449Z,26.25
2023-02-27T11:44:56.503Z,18.08
2023-02-27T11:48:09.504Z,18.08
2023-02-27T11:51:26.617Z,18.50
2023-02-27T11:54:38.247Z,17.60
2023-02-27T11:57:46.475Z,22.17
2023-02-27T12:00:53.999Z,19.80
2023-02-27T12:04:04.640Z,18.83
2023-02-27T12:07:18.256Z,20.30
2023-02-27T12:10:24.069Z,13.48
2023-02-27T12:13:32.118Z,19.92
2023-02-27T12:16:42.511Z,21.98
2023-02-27T12:20:10.055Z,18.38
2023-02-27T12:23:22.102Z,21.52
2023-02-27T12:26:31.272Z,26.63
2023-02-27T12:29:39.792Z,22.25
2023-02-27T12:32:49.162Z,20.27
2023-02-27T12:35:59.695Z,24.60
2023-02-27T12:39:04.682Z,15.25
2023-02-27T12:42:33.845Z,18.40
2023-02-27T12:46:01.024Z,22.10
2023-02-27T12:49:17.519Z,20.77
2023-02-27T12:52:31.319Z,21.55
2023-02-27T12:55:41.643Z,19.20
2023-02-27T12:58:56.040Z,24.77
2023-02-27T13:02:17.691Z,27.38
2023-02-27T13:05:53.641Z,31.87
2023-02-27T13:09:13.256Z,27.92
2023-02-27T13:12:30.966Z,38.90
2023-02-27T13:15:42.806Z,21.00
2023-02-27T13:18:52.729Z,33.37
2023-02-27T13:21:59.399Z,31.30
2023-02-27T13:25:12.455Z,32.00
2023-02-27T13:28:21.096Z,29.80
2023-02-27T13:31:34.322Z,27.30
2023-02-27T13:34:43.156Z,31.83
2023-02-27T13:37:55.424Z,26.13
2023-02-27T13:41:40.037Z,26.80
2023-02-27T13:44:43.810Z,23.57
2023-02-27T13:47:51.217Z,28.85
2023-02-27T13:50:55.041Z,30.58
2023-02-27T13:54:16.634Z,44.07
2023-02-27T13:57:29.397Z,28.15
2023-02-27T14:00:35.244Z,38.20
2023-02-27T14:03:41.750Z,29.17
2023-02-27T14:06:47.695Z,39.47
2023-02-27T14:09:54.498Z,31.40
2023-02-27T14:13:00.989Z,36.03
2023-02-27T14:16:04.941Z,30.33
2023-02-27T14:19:50.838Z,27.63
2023-02-27T14:23:20.760Z,36.33
2023-02-27T14:26:26.783Z,34.27
2023-02-27T14:29:35.084Z,34.03
2023-02-27T14:32:40.127Z,32.37
2023-02-27T14:35:47.834Z,30.90
2023-02-27T14:38:54.539Z,35.70
2023-02-27T14:42:18.154Z,35.77
2023-02-27T14:45:25.342Z,35.87
2023-02-27T14:48:30.275Z,23.20
2023-02-27T14:51:36.184Z,39.93
2023-02-27T14:54:40.067Z,33.40
2023-02-27T14:57:55.475Z,31.40
2023-02-27T15:01:04.802Z,30.53
2023-02-27T15:04:09.031Z,32.97
2023-02-27T15:07:24.845Z,23.67
2023-02-27T15:10:33.564Z,20.60
2023-02-27T15:13:40.780Z,23.40
2023-02-27T15:16:46.139Z,36.20
2023-02-27T15:19:52.706Z,28.63
2023-02-27T15:22:56.911Z,33.03
2023-02-27T15:26:01.999Z,29.33
2023-02-27T15:29:07.850Z,23.80
2023-02-27T15:32:20.873Z,27.60
2023-02-27T15:35:27.109Z,28.27
2023-02-27T15:38:32.613Z,29.83
2023-02-27T15:41:37.200Z,31.70
2023-02-27T15:44:44.450Z,31.70
2023-02-27T15:47:50.349Z,46.17
2023-02-27T15:50:56.070Z,35.13
2023-02-27T15:54:01.912Z,36.50
2023-02-27T15:57:07.905Z,41.57
2023-02-27T16:00:15.546Z,39.40
2023-02-27T16:03:25.281Z,40.27
2023-02-27T16:06:32.635Z,38.57
2023-02-27T16:09:38.795Z,36.07
2023-02-27T16:12:43.182Z,33.80
2023-02-27T16:15:46.994Z,37.70
2023-02-27T16:18:53.711Z,39.77
2023-02-27T16:22:14.169Z,37.27
2023-02-27T16:25:20.650Z,37.37
2023-02-27T16:28:24.452Z,39.00
2023-02-27T16:31:31.768Z,46.10
2023-02-27T16:34:47.604Z,46.17
2023-02-27T16:37:53.784Z,40.63
2023-02-27T16:40:57.674Z,47.60
2023-02-27T16:44:01.536Z,36.40
2023-02-27T16:47:05.404Z,26.90
2023-02-27T16:50:18.151Z,40.93
2023-02-27T16:53:21.824Z,38.90
2023-02-27T16:56:37.822Z,35.47
2023-02-27T16:59:44.301Z,37.20
2023-02-27T17:02:48.508Z,31.53
2023-02-27T17:05:55.453Z,25.90
2023-02-27T17:08:59.262Z,24.20
2023-02-27T17:12:03.151Z,34.07
2023-02-27T17:15:08.063Z,23.63
2023-02-27T17:18:11.845Z,23.30
2023-02-27T17:21:17.039Z,21.23
2023-02-27T17:24:20.804Z,19.60
2023-02-27T17:27:24.634Z,20.63
2023-02-27T17:30:28.550Z,24.80
2023-02-27T17:33:33.391Z,29.23
2023-02-27T17:36:39.605Z,21.13
2023-02-27T17:39:43.532Z,27.37
2023-02-27T17:42:47.270Z,32.67
2023-02-27T17:45:50.972Z,18.20
2023-02-27T17:48:56.442Z,33.27
2023-02-27T17:52:01.607Z,23.67
2023-02-27T17:55:06.162Z,24.80
2023-02-27T17:58:10.096Z,24.77
2023-02-27T18:01:17.242Z,23.83
2023-02-27T18:04:21.006Z,25.07
2023-02-27T18:07:26.410Z,22.03
2023-02-27T18:10:30.173Z,25.23
2023-02-27T18:13:33.911Z,28.83
2023-02-27T18:16:37.728Z,34.67
2023-02-27T18:19:41.939Z,34.47
2023-02-27T18:22:47.224Z,38.30
2023-02-27T18:25:55.626Z,39.70
2023-02-27T18:29:00.620Z,45.63
2023-02-27T18:32:04.787Z,33.70
2023-02-27T18:35:09.497Z,35.57
2023-02-27T18:38:14.745Z,27.63
2023-02-27T18:41:18.759Z,36.23
2023-02-27T18:44:22.566Z,31.33
2023-02-27T18:47:30.285Z,23.30
2023-02-27T18:50:34.675Z,28.00
2023-02-27T18:53:40.454Z,30.30
2023-02-27T18:56:44.313Z,32.63
2023-02-27T18:59:48.241Z,29.87
2023-02-27T19:02:52.213Z,26.07
2023-02-27T19:05:56.035Z,26.50
2023-02-27T19:09:01.453Z,24.73
2023-02-27T19:12:05.829Z,28.53
2023-02-27T19:15:12.202Z,27.73
2023-02-27T19:18:15.976Z,35.03
2023-02-27T19:21:20.385Z,27.07
2023-02-27T19:24:25.628Z,25.67
2023-02-27T19:27:29.545Z,32.63
2023-02-27T19:30:33.389Z,33.37
2023-02-27T19:33:37.617Z,33.60
2023-02-27T19:36:41.785Z,25.17
2023-02-27T19:39:47.095Z,27.47
2023-02-27T19:42:51.064Z,37.90
2023-02-27T19:45:54.806Z,24.77
2023-02-27T19:49:00.600Z,27.57
2023-02-27T19:52:04.575Z,27.37
2023-02-27T19:55:10.700Z,27.40
2023-02-27T19:58:14.452Z,27.47
2023-02-27T20:01:24.567Z,21.77
2023-02-27T20:04:28.690Z,24.40
2023-02-27T20:07:32.576Z,23.87
2023-02-27T20:10:37.893Z,28.63
2023-02-27T20:13:41.827Z,30.23
2023-02-27T20:16:45.797Z,20.03
2023-02-27T20:19:49.632Z,14.37
2023-02-27T20:22:53.721Z,23.13
2023-02-27T20:25:59.159Z,22.67
2023-02-27T20:29:05.521Z,20.17
2023-02-27T20:32:10.137Z,25.50
2023-02-27T20:35:14.534Z,17.80
2023-02-27T20:38:20.219Z,22.83
2023-02-27T20:41:29.361Z,19.13
2023-02-27T20:44:33.653Z,18.43
2023-02-27T20:47:37.424Z,16.70
2023-02-27T20:50:41.276Z,15.77
2023-02-27T20:53:47.595Z,16.27
2023-02-27T20:56:54.721Z,14.93
2023-02-27T20:59:58.587Z,13.90
2023-02-27T21:03:03.727Z,15.83
2023-02-27T21:06:08.747Z,15.60
2023-02-27T21:09:12.566Z,16.27
2023-02-27T21:12:18.400Z,18.30
2023-02-27T21:15:22.111Z,17.60
2023-02-27T21:18:25.917Z,10.53
2023-02-27T21:21:32.403Z,31.30
2023-02-27T21:24:36.197Z,26.13
2023-02-27T21:27:41.337Z,10.57
2023-02-27T21:30:45.206Z,17.27
2023-02-27T21:33:49.745Z,13.43
2023-02-27T21:36:54.426Z,16.07
2023-02-27T21:39:58.284Z,13.00
2023-02-27T21:43:03.651Z,17.83
2023-02-27T21:46:08.148Z,15.07
2023-02-27T21:49:17.641Z,16.27
2023-02-27T21:52:21.954Z,14.70
2023-02-27T21:55:25.716Z,19.53
2023-02-27T21:58:31.014Z,15.90
2023-02-27T22:01:35.469Z,17.70
2023-02-27T22:04:39.342Z,15.10
2023-02-27T22:07:43.189Z,13.80
2023-02-27T22:10:47.271Z,17.57
2023-02-27T22:13:52.440Z,15.80
2023-02-27T22:16:56.214Z,17.43
2023-02-27T22:20:00.065Z,20.73
2023-02-27T22:23:05.024Z,16.43
2023-02-27T22:26:10.299Z,16.43
2023-02-27T22:29:15.761Z,18.03
2023-02-27T22:32:19.989Z,17.23
2023-02-27T22:35:24.795Z,18.60
2023-02-27T22:38:28.591Z,18.77
2023-02-27T22:41:34.520Z,17.00
2023-02-27T22:44:39.752Z,19.23
2023-02-27T22:47:43.526Z,16.97
2023-02-27T22:50:47.363Z,18.13
2023-02-27T22:53:51.255Z,18.57
2023-02-27T22:56:57.923Z,19.17
2023-02-27T23:00:06.072Z,15.37
2023-02-27T23:03:09.813Z,21.47
2023-02-27T23:06:15.812Z,18.13
2023-02-27T23:09:21.965Z,21.07
2023-02-27T23:12:27.415Z,13.63
2023-02-27T23:15:33.154Z,15.73
2023-02-27T23:18:36.775Z,15.83
2023-02-27T23:21:40.493Z,15.67
2023-02-27T23:24:44.306Z,21.37
2023-02-27T23:27:48.170Z,21.97
2023-02-27T23:30:53.398Z,19.57
2023-02-27T23:33:57.585Z,17.57
2023-02-27T23:37:01.653Z,16.13
2023-02-27T23:40:06.911Z,19.27
2023-02-27T23:43:28.117Z,14.70
2023-02-27T23:46:33.596Z,18.10
2023-02-27T23:49:37.445Z,17.63
2023-02-27T23:52:41.256Z,13.80
2023-02-27T23:55:45.185Z,16.10
2023-02-27T23:58:50.051Z,15.33
